createdAt,value
2023-04-27T00:00:15.398Z,98862.60
2023-04-27T00:02:42.312Z,98863.52
2023-04-27T00:05:11.175Z,98869.25
2023-04-27T00:07:38.262Z,98876.07
2023-04-27T00:10:05.410Z,98877.50
2023-04-27T00:12:32.334Z,98883.75
2023-04-27T00:14:59.300Z,98886.77
2023-04-27T00:17:26.329Z,98884.34
2023-04-27T00:19:53.555Z,98896.02
2023-04-27T00:22:20.873Z,98904.04
2023-04-27T00:24:47.771Z,98908.89
2023-04-27T00:27:14.607Z,98907.18
2023-04-27T00:29:43.054Z,98910.59
2023-04-27T00:32:11.110Z,98912.21
2023-04-27T00:34:38.557Z,98913.54
2023-04-27T00:37:06.173Z,98914.54
2023-04-27T00:39:34.456Z,98914.66
2023-04-27T00:42:01.540Z,98919.65
2023-04-27T00:44:28.396Z,98918.67
2023-04-27T00:46:55.914Z,98923.09
2023-04-27T00:49:22.823Z,98920.00
2023-04-27T00:51:49.702Z,98913.39
2023-04-27T00:54:16.694Z,98917.73
2023-04-27T00:56:43.619Z,98914.69
2023-04-27T00:59:10.672Z,98915.43
2023-04-27T01:01:37.704Z,98915.73
2023-04-27T01:04:04.964Z,98913.61
2023-04-27T01:06:32.022Z,98914.13
2023-04-27T01:08:58.989Z,98917.00
2023-04-27T01:11:26.008Z,98921.52
2023-04-27T01:13:53.066Z,98923.56
2023-04-27T01:16:20.041Z,98916.25
2023-04-27T01:18:46.939Z,98914.09
2023-04-27T01:21:13.918Z,98915.14
2023-04-27T01:23:40.853Z,98910.75
2023-04-27T01:26:07.733Z,98912.29
2023-04-27T01:28:34.538Z,98916.71
2023-04-27T01:31:01.456Z,98915.06
2023-04-27T01:33:28.376Z,98925.19
2023-04-27T01:35:55.322Z,98923.23
2023-04-27T01:38:24.252Z,98922.33
2023-04-27T01:40:51.315Z,98925.60
2023-04-27T01:43:20.683Z,98926.71
2023-04-27T01:45:48.677Z,98927.78
2023-04-27T01:48:16.687Z,98935.03
2023-04-27T01:50:44.126Z,98937.39
2023-04-27T01:53:11.432Z,98934.79
2023-04-27T01:55:38.319Z,98936.44
2023-04-27T01:58:05.491Z,98937.55
2023-04-27T02:00:32.749Z,98941.92
2023-04-27T02:03:00.848Z,98948.43
2023-04-27T02:05:27.947Z,98947.23
2023-04-27T02:07:54.841Z,98940.88
2023-04-27T02:10:22.798Z,98942.91
2023-04-27T02:12:49.712Z,98943.45
2023-04-27T02:15:17.448Z,98951.73
2023-04-27T02:17:45.601Z,98954.58
2023-04-27T02:20:12.913Z,98950.27
2023-04-27T02:22:45.694Z,98948.27
2023-04-27T02:25:13.180Z,98954.21
2023-04-27T02:27:40.947Z,98956.21
2023-04-27T02:30:09.171Z,98962.10
2023-04-27T02:32:36.479Z,98961.34
2023-04-27T02:35:05.123Z,98958.82
2023-04-27T02:37:32.061Z,98956.25
2023-04-27T02:39:59.097Z,98959.32
2023-04-27T02:42:27.259Z,98965.62
2023-04-27T02:44:54.195Z,98963.17
2023-04-27T02:47:21.072Z,98963.89
2023-04-27T02:49:47.936Z,98967.04
2023-04-27T02:52:14.813Z,98969.53
2023-04-27T02:54:41.737Z,98973.77
2023-04-27T02:57:08.751Z,98978.33
2023-04-27T02:59:35.731Z,98976.98
2023-04-27T03:02:02.605Z,98984.13
2023-04-27T03:04:30.082Z,98987.56
2023-04-27T03:06:56.913Z,98991.48
2023-04-27T03:09:23.772Z,98990.34
2023-04-27T03:11:50.863Z,98991.23
2023-04-27T03:14:17.746Z,98997.36
2023-04-27T03:16:47.956Z,98995.44
2023-04-27T03:19:15.024Z,98996.85
2023-04-27T03:21:42.122Z,99005.19
2023-04-27T03:24:09.227Z,99007.69
2023-04-27T03:26:36.069Z,99011.08
2023-04-27T03:29:04.213Z,99010.87
2023-04-27T03:31:31.155Z,99015.36
2023-04-27T03:33:58.320Z,99021.27
2023-04-27T03:36:25.210Z,99021.67
2023-04-27T03:38:52.112Z,99021.59
2023-04-27T03:41:19.291Z,99020.23
2023-04-27T03:43:46.376Z,99022.20
2023-04-27T03:46:13.255Z,99024.39
2023-04-27T03:48:40.689Z,99025.89
2023-04-27T03:51:08.060Z,99029.37
2023-04-27T03:53:35.888Z,99032.17
2023-04-27T03:56:03.688Z,99033.52
2023-04-27T03:58:31.003Z,99034.89
2023-04-27T04:01:12.391Z,99038.02
2023-04-27T04:03:39.534Z,99040.66
2023-04-27T04:06:07.397Z,99039.27
2023-04-27T04:08:34.389Z,99035.51
2023-04-27T04:11:01.643Z,99034.17
2023-04-27T04:13:28.831Z,99028.13
2023-04-27T04:16:06.397Z,99023.79
2023-04-27T04:18:34.221Z,99023.66
2023-04-27T04:21:01.397Z,99029.50
2023-04-27T04:23:28.457Z,99026.44
2023-04-27T04:25:58.651Z,99022.65
2023-04-27T04:28:28.264Z,99017.25
2023-04-27T04:30:55.735Z,99011.77
2023-04-27T04:33:52.312Z,99017.36
2023-04-27T04:36:19.390Z,99024.36
2023-04-27T04:38:46.311Z,99023.59
2023-04-27T04:41:13.188Z,99025.30
2023-04-27T04:43:40.084Z,99031.27
2023-04-27T04:46:07.549Z,99024.54
2023-04-27T04:48:34.828Z,99023.83
2023-04-27T04:51:01.778Z,99027.64
2023-04-27T04:53:29.297Z,99029.01
2023-04-27T04:55:56.577Z,99026.04
2023-04-27T04:58:23.482Z,99030.09
2023-04-27T05:00:50.720Z,99026.27
2023-04-27T05:03:17.869Z,99031.30
2023-04-27T05:05:48.569Z,99028.47
2023-04-27T05:08:17.248Z,99033.14
2023-04-27T05:10:50.643Z,99031.91
2023-04-27T05:13:17.683Z,99040.35
2023-04-27T05:15:45.671Z,99043.31
2023-04-27T05:18:12.609Z,99036.58
2023-04-27T05:20:39.743Z,99040.05
2023-04-27T05:23:06.784Z,99046.17
2023-04-27T05:25:34.017Z,99051.91
2023-04-27T05:28:00.974Z,99051.98
2023-04-27T05:30:27.873Z,99050.94
2023-04-27T05:32:54.903Z,99054.61
2023-04-27T05:35:21.893Z,99053.03
2023-04-27T05:37:48.779Z,99049.77
2023-04-27T05:40:15.853Z,99048.73
2023-04-27T05:42:46.823Z,99051.47
2023-04-27T05:45:13.903Z,99049.81
2023-04-27T05:47:40.836Z,99051.23
2023-04-27T05:50:08.444Z,99055.75
2023-04-27T05:52:37.559Z,99057.05
2023-04-27T05:55:06.142Z,99056.46
2023-04-27T05:57:33.038Z,99052.45
2023-04-27T06:00:00.799Z,99053.50
2023-04-27T06:02:27.878Z,99058.63
2023-04-27T06:04:54.904Z,99062.54
2023-04-27T06:07:24.989Z,99062.53
2023-04-27T06:09:51.835Z,99063.55
2023-04-27T06:12:18.731Z,99064.38
2023-04-27T06:14:45.599Z,99070.52
2023-04-27T06:17:12.482Z,99072.02
2023-04-27T06:19:39.332Z,99070.98
2023-04-27T06:22:06.291Z,99070.13
2023-04-27T06:24:33.203Z,99072.02
2023-04-27T06:27:00.110Z,99066.08
2023-04-27T06:29:27.066Z,99070.45
2023-04-27T06:31:54.125Z,99067.88
2023-04-27T06:34:21.134Z,99066.47
2023-04-27T06:36:48.069Z,99066.25
2023-04-27T06:39:15.195Z,99074.11
2023-04-27T06:41:45.090Z,99075.45
2023-04-27T06:44:18.661Z,99080.24
2023-04-27T06:46:45.638Z,99080.61
2023-04-27T06:49:12.794Z,99084.91
2023-04-27T06:51:41.465Z,99085.67
2023-04-27T06:54:08.457Z,99088.65
2023-04-27T06:56:35.425Z,99088.41
2023-04-27T06:59:02.355Z,99092.58
2023-04-27T07:01:29.317Z,99094.09
2023-04-27T07:03:57.606Z,99096.58
2023-04-27T07:06:26.168Z,99100.81
2023-04-27T07:08:53.026Z,99096.11
2023-04-27T07:11:20.234Z,99100.15
2023-04-27T07:13:47.578Z,99099.23
2023-04-27T07:16:15.622Z,99101.48
2023-04-27T07:18:43.615Z,99104.55
2023-04-27T07:21:11.190Z,99107.80
2023-04-27T07:23:43.455Z,99113.64
2023-04-27T07:26:18.320Z,99107.34
2023-04-27T07:28:47.418Z,99115.63
2023-04-27T07:31:14.328Z,99117.13
2023-04-27T07:33:41.432Z,99117.02
2023-04-27T07:36:08.643Z,99122.67
2023-04-27T07:38:35.707Z,99122.83
2023-04-27T07:41:03.209Z,99126.17
2023-04-27T07:43:32.301Z,99121.70
2023-04-27T07:45:59.260Z,99126.18
2023-04-27T07:48:26.350Z,99121.42
2023-04-27T07:50:53.919Z,99121.79
2023-04-27T07:53:21.404Z,99119.36
2023-04-27T07:55:48.469Z,99123.00
2023-04-27T07:58:16.160Z,99125.56
2023-04-27T08:00:43.112Z,99126.88
2023-04-27T08:03:10.293Z,99134.82
2023-04-27T08:05:37.488Z,99131.23
2023-04-27T08:08:04.878Z,99132.19
2023-04-27T08:10:32.096Z,99135.41
2023-04-27T08:12:59.054Z,99137.77
2023-04-27T08:15:26.014Z,99143.12
2023-04-27T08:17:53.027Z,99144.55
2023-04-27T08:20:20.063Z,99149.67
2023-04-27T08:22:46.970Z,99144.67
2023-04-27T08:25:14.023Z,99148.88
2023-04-27T08:27:41.110Z,99150.73
2023-04-27T08:30:08.704Z,99150.53
2023-04-27T08:32:35.566Z,99155.21
2023-04-27T08:35:02.476Z,99151.64
2023-04-27T08:37:29.437Z,99152.67
2023-04-27T08:39:56.347Z,99150.80
2023-04-27T08:42:23.301Z,99154.83
2023-04-27T08:44:50.252Z,99157.65
2023-04-27T08:47:18.852Z,99159.96
2023-04-27T08:49:48.680Z,99162.33
2023-04-27T08:52:15.905Z,99161.96
2023-04-27T08:54:43.156Z,99163.96
2023-04-27T08:57:13.794Z,99162.07
2023-04-27T08:59:41.011Z,99161.05
2023-04-27T09:02:18.528Z,99163.27
2023-04-27T09:04:45.566Z,99160.95
2023-04-27T09:07:14.023Z,99161.70
2023-04-27T09:09:41.029Z,99158.66
2023-04-27T09:12:21.596Z,99163.21
2023-04-27T09:14:58.377Z,99161.98
2023-04-27T09:17:28.356Z,99163.28
2023-04-27T09:20:09.026Z,99162.41
2023-04-27T09:22:51.825Z,99159.31
2023-04-27T09:25:29.335Z,99157.57
2023-04-27T09:27:56.696Z,99158.98
2023-04-27T09:30:24.067Z,99161.65
2023-04-27T09:32:58.134Z,99160.67
2023-04-27T09:35:26.587Z,99166.05
2023-04-27T09:37:53.807Z,99163.44
2023-04-27T09:40:26.494Z,99164.09
2023-04-27T09:42:54.892Z,99157.80
2023-04-27T09:45:22.312Z,99157.33
2023-04-27T09:47:49.343Z,99160.56
2023-04-27T09:50:16.330Z,99160.70
2023-04-27T09:52:43.172Z,99159.45
2023-04-27T09:55:13.084Z,99158.81
2023-04-27T09:58:14.169Z,99160.58
2023-04-27T10:00:57.598Z,99153.88
2023-04-27T10:03:50.266Z,99158.50
2023-04-27T10:06:51.705Z,99161.35
2023-04-27T10:09:25.189Z,99163.93
2023-04-27T10:11:55.283Z,99159.20
2023-04-27T10:14:23.496Z,99155.76
2023-04-27T10:16:57.681Z,99160.48
2023-04-27T10:19:25.153Z,99162.11
2023-04-27T10:22:08.197Z,99166.39
2023-04-27T10:24:39.051Z,99168.61
2023-04-27T10:27:07.379Z,99171.09
2023-04-27T10:29:46.166Z,99177.21
2023-04-27T10:32:19.678Z,99184.48
2023-04-27T10:34:48.869Z,99190.31
2023-04-27T10:37:16.146Z,99192.23
2023-04-27T10:39:47.939Z,99199.03
2023-04-27T10:42:27.421Z,99197.88
2023-04-27T10:44:56.475Z,99201.66
2023-04-27T10:47:24.718Z,99205.57
2023-04-27T10:49:54.684Z,99208.92
2023-04-27T10:52:21.613Z,99203.36
2023-04-27T10:58:37.827Z,99209.69
2023-04-27T11:01:12.797Z,99211.14
2023-04-27T11:03:39.858Z,99208.84
2023-04-27T11:06:07.457Z,99208.09
2023-04-27T11:08:43.997Z,99203.16
2023-04-27T11:11:16.540Z,99206.42
2023-04-27T11:13:44.482Z,99204.38
2023-04-27T11:16:11.775Z,99202.80
2023-04-27T11:18:38.794Z,99204.73
2023-04-27T11:21:10.666Z,99208.13
2023-04-27T11:23:41.100Z,99209.76
2023-04-27T11:26:21.576Z,99212.61
2023-04-27T11:29:01.614Z,99201.44
2023-04-27T11:31:29.276Z,99202.25
2023-04-27T11:33:56.380Z,99207.23
2023-04-27T11:36:23.875Z,99205.23
2023-04-27T11:38:51.102Z,99203.94
2023-04-27T11:41:18.086Z,99210.11
2023-04-27T11:43:49.585Z,99208.61
2023-04-27T11:46:21.091Z,99215.82
2023-04-27T11:48:47.963Z,99210.24
2023-04-27T11:51:14.798Z,99212.86
2023-04-27T11:53:43.225Z,99209.06
2023-04-27T11:56:10.881Z,99205.84
2023-04-27T11:58:38.887Z,99204.13
2023-04-27T12:01:07.532Z,99208.48
2023-04-27T12:03:35.303Z,99209.60
2023-04-27T12:08:32.448Z,99207.47
2023-04-27T12:10:59.361Z,99215.70
2023-04-27T12:13:26.216Z,99216.05
2023-04-27T12:15:53.094Z,99213.98
2023-04-27T12:18:20.911Z,99218.17
2023-04-27T12:20:47.838Z,99215.41
2023-04-27T12:23:14.766Z,99216.55
2023-04-27T12:25:41.714Z,99221.62
2023-04-27T12:28:09.046Z,99223.67
2023-04-27T12:30:39.328Z,99228.18
2023-04-27T12:33:11.177Z,99228.89
2023-04-27T12:35:38.842Z,99232.45
2023-04-27T12:38:05.750Z,99236.27
2023-04-27T12:40:33.410Z,99234.98
2023-04-27T12:43:03.625Z,99236.91
2023-04-27T12:45:30.443Z,99234.39
2023-04-27T12:48:03.777Z,99242.48
2023-04-27T12:50:34.185Z,99231.46
2023-04-27T12:53:01.198Z,99238.29
2023-04-27T12:57:58.410Z,99243.00
2023-04-27T13:00:28.723Z,99237.91
2023-04-27T13:02:56.903Z,99234.90
2023-04-27T13:05:23.946Z,99238.00
2023-04-27T13:07:53.845Z,99243.08
2023-04-27T13:10:20.900Z,99246.33
2023-04-27T13:12:47.797Z,99244.90
2023-04-27T13:15:14.678Z,99249.30
2023-04-27T13:17:43.736Z,99247.40
2023-04-27T13:20:11.817Z,99243.02
2023-04-27T13:22:40.859Z,99252.73
2023-04-27T13:25:09.594Z,99247.12
2023-04-27T13:27:36.775Z,99252.83
2023-04-27T13:30:05.485Z,99260.47
2023-04-27T13:32:32.663Z,99264.86
2023-04-27T13:35:00.175Z,99272.41
2023-04-27T13:37:27.304Z,99271.66
2023-04-27T13:39:54.290Z,99276.85
2023-04-27T13:42:21.867Z,99278.18
2023-04-27T13:44:48.732Z,99273.23
2023-04-27T13:47:15.639Z,99272.98
2023-04-27T13:49:42.828Z,99275.13
2023-04-27T13:52:09.913Z,99276.56
2023-04-27T13:54:37.367Z,99277.66
2023-04-27T13:57:04.286Z,99274.94
2023-04-27T13:59:31.204Z,99275.56
2023-04-27T14:02:01.257Z,99278.27
2023-04-27T14:04:28.207Z,99275.85
2023-04-27T14:06:57.768Z,99274.79
2023-04-27T14:09:27.153Z,99270.23
2023-04-27T14:11:56.824Z,99269.43
2023-04-27T14:14:24.227Z,99272.30
2023-04-27T14:16:51.547Z,99273.94
2023-04-27T14:19:20.696Z,99281.13
2023-04-27T14:21:58.474Z,99273.76
2023-04-27T14:24:28.867Z,99279.60
2023-04-27T14:26:55.875Z,99276.20
2023-04-27T14:29:23.813Z,99293.83
2023-04-27T14:31:51.014Z,99294.78
2023-04-27T14:34:20.176Z,99300.07
2023-04-27T14:36:48.459Z,99294.90
2023-04-27T14:39:15.684Z,99300.46
2023-04-27T14:41:42.750Z,99301.92
2023-04-27T14:44:09.924Z,99296.10
2023-04-27T14:46:37.146Z,99301.89
2023-04-27T14:49:04.131Z,99304.80
2023-04-27T14:51:32.526Z,99302.09
2023-04-27T14:53:59.529Z,99307.13
2023-04-27T14:56:26.541Z,99303.17
2023-04-27T14:58:55.348Z,99300.55
2023-04-27T15:01:22.462Z,99303.41
2023-04-27T15:03:51.187Z,99302.90
2023-04-27T15:06:19.219Z,99303.77
2023-04-27T15:08:46.635Z,99303.59
2023-04-27T15:11:13.550Z,99299.74
2023-04-27T15:13:40.450Z,99298.59
2023-04-27T15:16:07.418Z,99298.59
2023-04-27T15:18:35.477Z,99299.09
2023-04-27T15:21:02.429Z,99295.05
2023-04-27T15:23:29.380Z,99291.03
2023-04-27T15:25:57.451Z,99293.91
2023-04-27T15:28:24.405Z,99290.80
2023-04-27T15:30:51.511Z,99287.47
2023-04-27T15:33:18.711Z,99285.05
2023-04-27T15:35:45.687Z,99280.48
2023-04-27T15:38:13.485Z,99286.50
2023-04-27T15:40:40.640Z,99290.80
2023-04-27T15:43:07.665Z,99290.99
2023-04-27T15:45:34.710Z,99292.34
2023-04-27T15:48:01.831Z,99298.63
2023-04-27T15:50:31.175Z,99305.73
2023-04-27T15:52:58.111Z,99316.41
2023-04-27T15:55:25.070Z,99326.06
2023-04-27T15:57:51.958Z,99327.27
2023-04-27T16:00:22.259Z,99326.17
2023-04-27T16:02:49.651Z,99327.30
2023-04-27T16:05:17.258Z,99327.16
2023-04-27T16:07:44.298Z,99330.48
2023-04-27T16:10:11.780Z,99327.14
2023-04-27T16:12:41.373Z,99330.44
2023-04-27T16:15:10.910Z,99328.70
2023-04-27T16:17:38.523Z,99327.17
2023-04-27T16:20:08.077Z,99335.19
2023-04-27T16:22:35.903Z,99336.16
2023-04-27T16:25:04.009Z,99340.60
2023-04-27T16:27:31.130Z,99348.06
2023-04-27T16:29:58.045Z,99347.84
2023-04-27T16:32:25.059Z,99342.87
2023-04-27T16:34:52.067Z,99341.66
2023-04-27T16:37:19.290Z,99339.36
2023-04-27T16:39:46.535Z,99332.56
2023-04-27T16:42:18.824Z,99328.60
2023-04-27T16:44:46.527Z,99327.99
2023-04-27T16:47:13.724Z,99320.20
2023-04-27T16:49:42.327Z,99325.45
2023-04-27T16:52:09.162Z,99325.81
2023-04-27T16:54:36.507Z,99330.39
2023-04-27T16:57:04.291Z,99326.86
2023-04-27T16:59:34.428Z,99327.07
2023-04-27T17:02:09.414Z,99331.45
2023-04-27T17:04:43.823Z,99332.22
2023-04-27T17:07:10.998Z,99336.18
2023-04-27T17:09:38.090Z,99340.03
2023-04-27T17:12:11.043Z,99347.70
2023-04-27T17:14:38.774Z,99342.98
2023-04-27T17:17:06.506Z,99345.94
2023-04-27T17:19:36.563Z,99351.67
2023-04-27T17:22:05.475Z,99360.73
2023-04-27T17:24:32.392Z,99369.44
2023-04-27T17:26:59.594Z,99376.66
2023-04-27T17:29:26.477Z,99375.53
2023-04-27T17:31:53.476Z,99380.83
2023-04-27T17:34:21.080Z,99383.35
2023-04-27T17:36:48.019Z,99388.50
2023-04-27T17:39:15.439Z,99390.87
2023-04-27T17:41:42.735Z,99392.44
2023-04-27T17:44:12.195Z,99384.86
2023-04-27T17:46:45.816Z,99387.55
2023-04-27T17:49:13.077Z,99384.77
2023-04-27T17:51:40.114Z,99387.20
2023-04-27T17:54:06.998Z,99379.33
2023-04-27T17:56:34.115Z,99384.13
2023-04-27T17:59:01.233Z,99384.85
2023-04-27T18:01:28.142Z,99383.83
2023-04-27T18:03:55.198Z,99383.85
2023-04-27T18:06:22.155Z,99391.86
2023-04-27T18:08:49.324Z,99398.31
2023-04-27T18:11:16.335Z,99402.84
2023-04-27T18:13:43.256Z,99406.02
2023-04-27T18:16:10.323Z,99407.36
2023-04-27T18:18:37.457Z,99404.82
2023-04-27T18:21:04.423Z,99413.96
2023-04-27T18:23:31.554Z,99412.52
2023-04-27T18:25:59.947Z,99419.96
2023-04-27T18:28:26.895Z,99419.00
2023-04-27T18:30:53.783Z,99424.91
2023-04-27T18:33:21.330Z,99425.75
2023-04-27T18:35:48.425Z,99424.72
2023-04-27T18:38:15.311Z,99421.39
2023-04-27T18:40:42.168Z,99419.89
2023-04-27T18:43:09.173Z,99422.16
2023-04-27T18:45:36.078Z,99417.35
2023-04-27T18:48:03.074Z,99418.80
2023-04-27T18:50:30.075Z,99415.55
2023-04-27T18:52:57.792Z,99423.64
2023-04-27T18:55:24.737Z,99422.20
2023-04-27T18:57:51.694Z,99428.58
2023-04-27T19:00:18.714Z,99435.66
2023-04-27T19:02:45.644Z,99434.02
2023-04-27T19:05:13.756Z,99435.89
2023-04-27T19:07:41.249Z,99438.50
2023-04-27T19:10:08.989Z,99440.52
2023-04-27T19:12:38.364Z,99439.58
2023-04-27T19:15:05.560Z,99441.36
2023-04-27T19:17:32.818Z,99442.67
2023-04-27T19:19:59.980Z,99448.71
2023-04-27T19:22:31.179Z,99446.55
2023-04-27T19:24:58.035Z,99447.10
2023-04-27T19:27:24.883Z,99447.48
2023-04-27T19:29:53.606Z,99445.36
2023-04-27T19:32:20.868Z,99448.06
2023-04-27T19:34:48.761Z,99450.55
2023-04-27T19:37:16.178Z,99444.90
2023-04-27T19:39:43.106Z,99451.04
2023-04-27T19:42:10.034Z,99454.01
2023-04-27T19:44:36.930Z,99454.39
2023-04-27T19:47:03.847Z,99456.00
2023-04-27T19:49:32.897Z,99462.70
2023-04-27T19:52:00.650Z,99463.30
2023-04-27T19:54:27.643Z,99469.38
2023-04-27T19:56:55.121Z,99469.66
2023-04-27T19:59:22.074Z,99473.63
2023-04-27T20:01:49.094Z,99478.31
2023-04-27T20:04:18.255Z,99482.29
2023-04-27T20:06:56.748Z,99484.23
2023-04-27T20:09:23.635Z,99483.33
2023-04-27T20:11:50.597Z,99483.15
2023-04-27T20:14:19.930Z,99483.48
2023-04-27T20:16:47.068Z,99485.02
2023-04-27T20:19:18.049Z,99484.92
2023-04-27T20:21:45.551Z,99484.10
2023-04-27T20:24:15.779Z,99485.60
2023-04-27T20:26:42.989Z,99484.95
2023-04-27T20:29:09.824Z,99487.90
2023-04-27T20:31:36.665Z,99488.30
2023-04-27T20:34:03.529Z,99489.55
2023-04-27T20:36:30.457Z,99488.99
2023-04-27T20:38:57.722Z,99486.81
2023-04-27T20:41:25.063Z,99487.09
2023-04-27T20:43:52.550Z,99490.86
2023-04-27T20:46:20.041Z,99490.52
2023-04-27T20:48:47.142Z,99493.06
2023-04-27T20:51:16.956Z,99492.80
2023-04-27T20:53:43.824Z,99492.38
2023-04-27T20:56:12.046Z,99490.47
2023-04-27T20:58:38.893Z,99489.40
2023-04-27T21:01:05.871Z,99495.80
2023-04-27T21:03:32.907Z,99494.71
2023-04-27T21:05:59.906Z,99496.98
2023-04-27T21:08:28.136Z,99494.83
2023-04-27T21:10:57.121Z,99492.88
2023-04-27T21:13:24.608Z,99494.92
2023-04-27T21:15:51.410Z,99493.84
2023-04-27T21:18:29.208Z,99494.89
2023-04-27T21:20:57.058Z,99496.21
2023-04-27T21:23:24.101Z,99492.06
2023-04-27T21:25:51.262Z,99491.46
2023-04-27T21:28:18.155Z,99494.04
2023-04-27T21:30:45.162Z,99490.13
2023-04-27T21:33:15.283Z,99492.29
2023-04-27T21:35:42.170Z,99495.40
2023-04-27T21:38:09.081Z,99497.17
2023-04-27T21:40:35.921Z,99501.91
2023-04-27T21:43:02.800Z,99504.56
2023-04-27T21:45:29.647Z,99502.79
2023-04-27T21:47:56.528Z,99503.38
2023-04-27T21:50:23.806Z,99501.95
2023-04-27T21:52:50.815Z,99494.58
2023-04-27T21:55:17.623Z,99486.11
2023-04-27T21:57:44.504Z,99484.45
2023-04-27T22:00:15.416Z,99483.33
2023-04-27T22:02:45.080Z,99477.01
2023-04-27T22:05:12.416Z,99473.18
2023-04-27T22:07:39.312Z,99477.39
2023-04-27T22:10:06.591Z,99477.61
2023-04-27T22:12:33.728Z,99473.30
2023-04-27T22:15:00.952Z,99474.98
2023-04-27T22:17:27.987Z,99474.06
2023-04-27T22:19:55.091Z,99472.77
2023-04-27T22:22:21.948Z,99476.21
2023-04-27T22:24:48.877Z,99477.73
2023-04-27T22:27:15.976Z,99479.89
2023-04-27T22:29:42.878Z,99477.69
2023-04-27T22:32:10.132Z,99472.56
2023-04-27T22:34:37.505Z,99475.44
2023-04-27T22:37:04.417Z,99472.19
2023-04-27T22:39:32.015Z,99472.13
2023-04-27T22:41:58.903Z,99478.91
2023-04-27T22:44:26.163Z,99485.98
2023-04-27T22:46:53.082Z,99483.24
2023-04-27T22:49:19.995Z,99487.77
2023-04-27T22:51:47.303Z,99484.59
2023-04-27T22:54:14.919Z,99477.83
2023-04-27T22:56:42.156Z,99478.64
2023-04-27T22:59:09.059Z,99482.09
2023-04-27T23:01:36.172Z,99480.59
2023-04-27T23:04:03.164Z,99478.70
2023-04-27T23:06:30.464Z,99480.68
2023-04-27T23:08:57.453Z,99475.84
2023-04-27T23:11:52.168Z,99479.67
2023-04-27T23:14:23.463Z,99479.52
2023-04-27T23:16:50.738Z,99477.59
2023-04-27T23:19:17.641Z,99473.75
2023-04-27T23:21:44.602Z,99471.62
2023-04-27T23:24:11.539Z,99472.67
2023-04-27T23:26:38.417Z,99474.35
2023-04-27T23:29:05.287Z,99472.50
2023-04-27T23:31:32.773Z,99472.95
2023-04-27T23:33:59.630Z,99467.79
2023-04-27T23:36:26.509Z,99467.95
2023-04-27T23:38:53.428Z,99466.27
2023-04-27T23:41:20.948Z,99469.94
2023-04-27T23:43:48.310Z,99471.39
2023-04-27T23:46:15.294Z,99474.55
2023-04-27T23:48:42.516Z,99478.65
2023-04-27T23:51:09.377Z,99483.19
2023-04-27T23:53:36.388Z,99482.89
2023-04-27T23:56:03.194Z,99484.84
2023-04-27T23:58:30.150Z,99482.55
